Time;durP1;ratioP1;P1;durP2;ratioP2;P2;SDS_P1;SDS_P2;PMS_P1;PMS_P2;Temp;Humidity;BMP_temperature;BMP_pressure;BME280_temperature;BME280_humidity;BME280_pressure;Samples;Min_cycle;Max_cycle;Signal;HPM_P1;HPM_P2
2023/08/15 00:00:09;0.00;0.00;0.62;0.00;0.00;0.62;3.20;2.60;;;32.30;32.00;;;;;;2263630;61;20434;-56
2023/08/15 00:03:01;0.00;0.00;0.62;0.00;0.00;0.62;2.93;2.43;;;32.30;32.00;;;;;;2264276;61;20365;-57
2023/08/15 00:05:46;0.00;0.00;0.62;0.00;0.00;0.62;2.83;2.63;;;32.30;32.00;;;;;;2263820;61;20396;-61
2023/08/15 00:08:30;0.00;0.00;0.62;0.00;0.00;0.62;3.13;2.83;;;32.30;32.00;;;;;;2263715;61;20445;-57
2023/08/15 00:11:15;0.00;0.00;0.62;0.00;0.00;0.62;3.17;2.87;;;32.30;32.00;;;;;;2263976;61;20376;-59
2023/08/15 00:14:00;0.00;0.00;0.62;0.00;0.00;0.62;3.00;2.60;;;32.30;32.00;;;;;;2263974;61;20392;-54
2023/08/15 00:16:45;0.00;0.00;0.62;0.00;0.00;0.62;2.90;2.40;;;32.20;32.00;;;;;;2264388;61;20407;-58
2023/08/15 00:19:31;0.00;0.00;0.62;0.00;0.00;0.62;2.93;2.60;;;32.20;32.00;;;;;;2263422;61;20383;-59
2023/08/15 00:22:17;0.00;0.00;0.62;0.00;0.00;0.62;3.50;3.20;;;32.20;32.00;;;;;;2263851;61;20916;-58
2023/08/15 00:25:02;0.00;0.00;0.62;0.00;0.00;0.62;3.17;2.50;;;32.20;32.00;;;;;;2264355;61;20356;-57
2023/08/15 00:27:47;0.00;0.00;0.62;0.00;0.00;0.62;2.77;2.33;;;32.20;32.00;;;;;;2263708;61;20367;-65
2023/08/15 00:30:33;0.00;0.00;0.62;0.00;0.00;0.62;3.00;2.70;;;32.20;32.00;;;;;;2263549;61;20851;-62
2023/08/15 00:33:17;0.00;0.00;0.62;0.00;0.00;0.62;3.70;2.73;;;32.20;32.70;;;;;;2263690;61;20822;-57
2023/08/15 00:36:06;0.00;0.00;0.62;0.00;0.00;0.62;2.87;2.33;;;32.30;32.10;;;;;;2263337;61;20410;-57
2023/08/15 00:38:51;0.00;0.00;0.62;0.00;0.00;0.62;3.70;2.80;;;32.20;32.00;;;;;;2263296;61;20372;-55
2023/08/15 00:41:36;0.00;0.00;0.62;0.00;0.00;0.62;4.30;2.47;;;32.20;32.10;;;;;;2264121;61;20415;-61
2023/08/15 00:44:21;0.00;0.00;0.62;0.00;0.00;0.62;3.27;2.93;;;32.20;32.10;;;;;;2264203;61;20368;-59
2023/08/15 00:47:06;0.00;0.00;0.62;0.00;0.00;0.62;3.07;2.70;;;32.20;32.10;;;;;;2263987;61;20523;-57
2023/08/15 00:49:52;0.00;0.00;0.62;0.00;0.00;0.62;4.90;2.70;;;32.20;32.80;;;;;;2263474;61;20384;-57
2023/08/15 00:52:40;0.00;0.00;0.62;0.00;0.00;0.62;2.87;2.57;;;32.20;32.10;;;;;;2263931;61;20368;-57
2023/08/15 00:55:26;0.00;0.00;0.62;0.00;0.00;0.62;3.27;2.67;;;32.20;32.10;;;;;;2263894;61;20538;-57
2023/08/15 00:58:11;0.00;0.00;0.62;0.00;0.00;0.62;3.13;2.83;;;32.20;32.10;;;;;;2263771;61;20367;-58
2023/08/15 01:00:56;0.00;0.00;0.62;0.00;0.00;0.62;3.73;2.90;;;32.20;32.10;;;;;;2263561;61;20420;-58
2023/08/15 01:03:41;0.00;0.00;0.62;0.00;0.00;0.62;3.37;2.97;;;32.20;32.10;;;;;;2264041;61;20832;-58
2023/08/15 01:06:27;0.00;0.00;0.62;0.00;0.00;0.62;2.83;2.53;;;32.20;32.10;;;;;;2263972;61;20827;-60
2023/08/15 01:09:13;0.00;0.00;0.62;0.00;0.00;0.62;4.63;3.00;;;32.20;32.10;;;;;;2263651;61;20364;-57
2023/08/15 01:12:11;0.00;0.00;0.62;0.00;0.00;0.62;4.23;3.07;;;32.20;32.10;;;;;;2263737;61;20360;-58
2023/08/15 01:15:05;0.00;0.00;0.62;0.00;0.00;0.62;2.90;2.50;;;32.20;32.10;;;;;;2263704;61;20424;-60
2023/08/15 01:17:59;0.00;0.00;0.62;0.00;0.00;0.62;3.27;2.97;;;32.20;32.20;;;;;;2264068;61;20364;-56
2023/08/15 01:20:46;0.00;0.00;0.62;0.00;0.00;0.62;2.47;2.27;;;32.20;32.10;;;;;;2263374;61;20958;-55
2023/08/15 01:23:42;0.00;0.00;0.62;0.00;0.00;0.62;2.90;2.70;;;32.20;32.20;;;;;;2263986;61;20360;-59
2023/08/15 01:26:27;0.00;0.00;0.62;0.00;0.00;0.62;2.90;2.60;;;32.20;32.10;;;;;;2263436;61;20422;-54
2023/08/15 01:29:12;0.00;0.00;0.62;0.00;0.00;0.62;4.03;2.67;;;32.20;32.10;;;;;;2263434;61;20363;-56
2023/08/15 01:32:05;0.00;0.00;0.62;0.00;0.00;0.62;2.73;2.53;;;32.10;32.10;;;;;;2264130;61;20368;-57
2023/08/15 01:34:56;0.00;0.00;0.62;0.00;0.00;0.62;3.27;2.60;;;32.10;32.80;;;;;;2264364;61;20411;-59
2023/08/15 01:37:44;0.00;0.00;0.62;0.00;0.00;0.62;4.30;2.97;;;32.10;32.10;;;;;;2264926;61;20360;-59
2023/08/15 01:40:35;0.00;0.00;0.62;0.00;0.00;0.62;3.03;2.73;;;32.20;32.20;;;;;;2264226;61;20866;-57
2023/08/15 01:43:22;0.00;0.00;0.62;0.00;0.00;0.62;3.80;2.83;;;32.10;32.10;;;;;;2263975;61;20915;-54
2023/08/15 01:46:08;0.00;0.00;0.62;0.00;0.00;0.62;2.90;2.70;;;32.10;32.10;;;;;;2264927;61;20407;-60
2023/08/15 01:48:53;0.00;0.00;0.62;0.00;0.00;0.62;3.00;2.70;;;32.10;32.20;;;;;;2264163;61;20395;-60
2023/08/15 01:51:37;0.00;0.00;0.62;0.00;0.00;0.62;3.40;3.10;;;32.10;32.10;;;;;;2264255;61;20430;-57
2023/08/15 01:54:22;0.00;0.00;0.62;0.00;0.00;0.62;3.17;2.70;;;32.10;32.10;;;;;;2264751;61;20388;-59
2023/08/15 01:57:09;0.00;0.00;0.62;0.00;0.00;0.62;3.10;2.80;;;32.10;32.20;;;;;;2264192;61;20872;-59
2023/08/15 01:59:54;0.00;0.00;0.62;0.00;0.00;0.62;2.60;2.40;;;32.10;32.20;;;;;;2263755;61;20388;-60
2023/08/15 02:02:39;0.00;0.00;0.62;0.00;0.00;0.62;3.20;2.90;;;32.10;32.20;;;;;;2264756;61;20824;-60
2023/08/15 02:05:24;0.00;0.00;0.62;0.00;0.00;0.62;2.40;2.20;;;32.10;32.20;;;;;;2264444;61;20483;-61
2023/08/15 02:08:09;0.00;0.00;0.62;0.00;0.00;0.62;3.40;3.10;;;32.10;32.20;;;;;;2263963;61;20875;-60
2023/08/15 02:10:56;0.00;0.00;0.62;0.00;0.00;0.62;3.20;2.90;;;32.10;32.20;;;;;;2263854;61;20392;-61
2023/08/15 02:13:42;0.00;0.00;0.62;0.00;0.00;0.62;2.80;2.53;;;32.10;32.20;;;;;;2264374;61;20957;-62
2023/08/15 02:16:26;0.00;0.00;0.62;0.00;0.00;0.62;2.70;2.50;;;32.10;32.20;;;;;;2264124;61;20430;-60
2023/08/15 02:19:13;0.00;0.00;0.62;0.00;0.00;0.62;3.17;2.67;;;32.10;32.20;;;;;;2263453;61;20364;-61
2023/08/15 02:21:58;0.00;0.00;0.62;0.00;0.00;0.62;3.60;2.43;;;32.10;32.20;;;;;;2264889;61;20372;-60
2023/08/15 02:24:43;0.00;0.00;0.62;0.00;0.00;0.62;4.67;2.83;;;32.10;32.20;;;;;;2264143;61;20417;-60
2023/08/15 02:27:27;0.00;0.00;0.62;0.00;0.00;0.62;3.60;2.40;;;32.10;32.20;;;;;;2264081;61;20368;-59
2023/08/15 02:30:14;0.00;0.00;0.62;0.00;0.00;0.62;2.77;2.00;;;32.10;32.20;;;;;;2264129;61;20383;-61
2023/08/15 02:32:58;0.00;0.00;0.62;0.00;0.00;0.62;3.13;2.83;;;32.00;32.20;;;;;;2264414;61;20403;-61
2023/08/15 02:35:43;0.00;0.00;0.62;0.00;0.00;0.62;2.80;2.60;;;32.10;32.20;;;;;;2263947;61;20442;-59
2023/08/15 02:38:28;0.00;0.00;0.62;0.00;0.00;0.62;3.03;2.67;;;32.00;32.10;;;;;;2264094;61;20450;-57
2023/08/15 02:41:12;0.00;0.00;0.62;0.00;0.00;0.62;2.50;2.30;;;32.10;32.30;;;;;;2264283;61;20435;-57
2023/08/15 02:43:57;0.00;0.00;0.62;0.00;0.00;0.62;4.07;2.77;;;32.10;32.20;;;;;;2264568;61;20391;-60
2023/08/15 02:46:43;0.00;0.00;0.62;0.00;0.00;0.62;3.10;2.80;;;32.00;32.90;;;;;;2264316;61;20360;-56
2023/08/15 02:49:30;0.00;0.00;0.62;0.00;0.00;0.62;2.50;2.30;;;32.10;32.90;;;;;;2263593;61;20388;-57
2023/08/15 02:52:15;0.00;0.00;0.62;0.00;0.00;0.62;3.07;2.63;;;32.10;32.30;;;;;;2264302;61;20773;-57
2023/08/15 02:54:59;0.00;0.00;0.62;0.00;0.00;0.62;2.70;2.37;;;32.00;32.20;;;;;;2263674;61;20392;-57
2023/08/15 02:57:44;0.00;0.00;0.62;0.00;0.00;0.62;3.20;2.80;;;32.00;32.20;;;;;;2263880;61;20368;-56
2023/08/15 03:00:28;0.00;0.00;0.62;0.00;0.00;0.62;2.73;2.53;;;32.00;32.20;;;;;;2264064;61;20387;-56
2023/08/15 03:03:14;0.00;0.00;0.62;0.00;0.00;0.62;2.60;2.40;;;32.00;32.20;;;;;;2264136;61;20364;-55
2023/08/15 03:06:00;0.00;0.00;0.62;0.00;0.00;0.62;4.03;2.67;;;32.00;32.90;;;;;;2264382;61;20364;-56
2023/08/15 03:08:46;0.00;0.00;0.62;0.00;0.00;0.62;2.63;2.40;;;32.00;32.20;;;;;;2263503;61;20363;-58
2023/08/15 03:11:31;0.00;0.00;0.62;0.00;0.00;0.62;2.73;2.53;;;32.00;32.20;;;;;;2263436;61;20908;-55
2023/08/15 03:14:16;0.00;0.00;0.62;0.00;0.00;0.62;3.47;2.63;;;32.00;32.20;;;;;;2264045;61;20415;-53
2023/08/15 03:17:02;0.00;0.00;0.62;0.00;0.00;0.62;3.63;2.83;;;32.00;32.20;;;;;;2263965;61;20431;-58
2023/08/15 03:19:49;0.00;0.00;0.62;0.00;0.00;0.62;3.10;2.80;;;32.00;32.20;;;;;;2263144;61;20534;-57
2023/08/15 03:22:33;0.00;0.00;0.62;0.00;0.00;0.62;2.77;2.40;;;32.00;32.20;;;;;;2264606;61;20908;-59
2023/08/15 03:25:18;0.00;0.00;0.62;0.00;0.00;0.62;2.90;2.60;;;32.00;32.20;;;;;;2263614;61;20357;-60
2023/08/15 03:28:04;0.00;0.00;0.62;0.00;0.00;0.62;3.00;2.80;;;32.00;32.20;;;;;;2263561;61;20368;-58
2023/08/15 03:30:49;0.00;0.00;0.62;0.00;0.00;0.62;4.27;2.80;;;32.00;32.20;;;;;;2263983;61;20438;-57
2023/08/15 03:33:34;0.00;0.00;0.62;0.00;0.00;0.62;2.80;2.60;;;32.00;32.30;;;;;;2263357;61;20803;-58
2023/08/15 03:36:21;0.00;0.00;0.62;0.00;0.00;0.62;3.93;2.80;;;32.00;32.30;;;;;;2264370;61;20379;-57
2023/08/15 03:39:05;0.00;0.00;0.62;0.00;0.00;0.62;3.50;2.70;;;32.00;32.30;;;;;;2263562;61;20368;-58
2023/08/15 03:41:50;0.00;0.00;0.62;0.00;0.00;0.62;2.90;2.67;;;32.00;32.20;;;;;;2263930;61;20368;-54
2023/08/15 03:44:35;0.00;0.00;0.62;0.00;0.00;0.62;3.37;3.07;;;32.00;32.30;;;;;;2263828;61;20405;-56
2023/08/15 03:47:19;0.00;0.00;0.62;0.00;0.00;0.62;4.00;3.00;;;31.90;32.20;;;;;;2264116;61;20930;-57
2023/08/15 03:50:05;0.00;0.00;0.62;0.00;0.00;0.62;2.83;2.63;;;31.90;32.20;;;;;;2263193;61;20391;-57
2023/08/15 03:52:51;0.00;0.00;0.62;0.00;0.00;0.62;3.33;2.73;;;31.90;32.20;;;;;;2264413;61;20405;-57
2023/08/15 03:55:37;0.00;0.00;0.62;0.00;0.00;0.62;3.27;2.97;;;31.90;32.30;;;;;;2263421;61;20391;-52
2023/08/15 03:58:23;0.00;0.00;0.62;0.00;0.00;0.62;3.70;2.23;;;31.90;32.30;;;;;;2263488;61;20524;-51
2023/08/15 04:01:07;0.00;0.00;0.62;0.00;0.00;0.62;3.00;2.60;;;31.90;32.30;;;;;;2264061;61;20904;-58
2023/08/15 04:03:52;0.00;0.00;0.62;0.00;0.00;0.62;2.93;2.73;;;31.90;32.30;;;;;;2263520;61;20411;-60
2023/08/15 04:06:37;0.00;0.00;0.62;0.00;0.00;0.62;2.93;2.63;;;31.90;33.00;;;;;;2263757;61;20773;-57
2023/08/15 04:09:23;0.00;0.00;0.62;0.00;0.00;0.62;3.23;2.93;;;31.90;32.30;;;;;;2263183;61;20979;-57
2023/08/15 04:12:08;0.00;0.00;0.62;0.00;0.00;0.62;3.30;2.93;;;31.90;32.30;;;;;;2263985;61;20372;-54
2023/08/15 04:14:54;0.00;0.00;0.62;0.00;0.00;0.62;3.20;2.90;;;31.90;32.30;;;;;;2263874;61;20387;-59
2023/08/15 04:17:38;0.00;0.00;0.62;0.00;0.00;0.62;4.10;3.00;;;31.90;32.30;;;;;;2263838;61;20370;-60
2023/08/15 04:20:23;0.00;0.00;0.62;0.00;0.00;0.62;4.20;2.80;;;31.90;32.30;;;;;;2263453;61;20438;-57
2023/08/15 04:23:08;0.00;0.00;0.62;0.00;0.00;0.62;2.90;2.60;;;31.90;32.30;;;;;;2264266;61;20359;-58
2023/08/15 04:25:55;0.00;0.00;0.62;0.00;0.00;0.62;3.03;2.73;;;31.90;32.30;;;;;;2263274;61;20899;-52
2023/08/15 04:28:40;0.00;0.00;0.62;0.00;0.00;0.62;3.10;2.80;;;31.90;32.30;;;;;;2263679;61;20857;-56
2023/08/15 04:31:25;0.00;0.00;0.62;0.00;0.00;0.62;2.97;2.60;;;31.90;32.30;;;;;;2263192;61;20422;-54
2023/08/15 04:34:10;0.00;0.00;0.62;0.00;0.00;0.62;3.73;2.90;;;31.90;32.30;;;;;;2263510;61;20420;-51
2023/08/15 04:36:56;0.00;0.00;0.62;0.00;0.00;0.62;2.60;2.40;;;31.90;32.30;;;;;;2263745;61;20973;-56
2023/08/15 04:39:40;0.00;0.00;0.62;0.00;0.00;0.62;2.70;2.30;;;31.90;32.30;;;;;;2263286;61;20947;-57
2023/08/15 04:42:26;0.00;0.00;0.62;0.00;0.00;0.62;3.27;2.37;;;31.90;32.30;;;;;;2263516;61;20380;-57
2023/08/15 04:45:11;0.00;0.00;0.62;0.00;0.00;0.62;3.37;3.07;;;31.90;32.30;;;;;;2263525;61;20839;-58
2023/08/15 04:47:55;0.00;0.00;0.62;0.00;0.00;0.62;3.77;3.13;;;31.90;32.30;;;;;;2263253;61;20858;-57
2023/08/15 04:50:40;0.00;0.00;0.62;0.00;0.00;0.62;3.13;2.67;;;31.90;32.90;;;;;;2263570;61;20787;-62
2023/08/15 04:53:25;0.00;0.00;0.62;0.00;0.00;0.62;3.30;2.87;;;31.90;32.30;;;;;;2263345;61;20364;-58
2023/08/15 04:56:11;0.00;0.00;0.62;0.00;0.00;0.62;3.30;2.60;;;31.90;32.30;;;;;;2263366;61;20453;-59
2023/08/15 04:58:58;0.00;0.00;0.62;0.00;0.00;0.62;4.43;3.37;;;31.80;32.20;;;;;;2263012;61;20368;-60
2023/08/15 05:01:42;0.00;0.00;0.62;0.00;0.00;0.62;3.03;2.73;;;31.80;32.20;;;;;;2263942;61;20777;-62
2023/08/15 05:04:27;0.00;0.00;0.62;0.00;0.00;0.62;3.20;2.90;;;31.80;32.20;;;;;;2263915;61;20364;-61
2023/08/15 05:07:12;0.00;0.00;0.62;0.00;0.00;0.62;3.67;3.23;;;31.90;32.30;;;;;;2263547;61;20934;-58
2023/08/15 05:09:58;0.00;0.00;0.62;0.00;0.00;0.62;3.20;2.90;;;31.80;32.30;;;;;;2263167;61;20939;-59
2023/08/15 05:12:44;0.00;0.00;0.62;0.00;0.00;0.62;3.73;3.10;;;31.80;32.30;;;;;;2264193;61;20903;-60
2023/08/15 05:15:31;0.00;0.00;0.62;0.00;0.00;0.62;3.73;2.90;;;31.80;32.40;;;;;;2264001;61;20903;-56
2023/08/15 05:18:17;0.00;0.00;0.62;0.00;0.00;0.62;3.20;2.90;;;31.80;32.30;;;;;;2263865;61;20417;-58
2023/08/15 05:21:02;0.00;0.00;0.62;0.00;0.00;0.62;3.30;2.93;;;31.80;32.30;;;;;;2264250;61;20509;-60
2023/08/15 05:23:47;0.00;0.00;0.62;0.00;0.00;0.62;3.23;2.93;;;31.80;32.30;;;;;;2264080;61;20367;-58
2023/08/15 05:26:32;0.00;0.00;0.62;0.00;0.00;0.62;3.33;2.90;;;31.80;32.30;;;;;;2263905;61;20417;-61
2023/08/15 05:29:16;0.00;0.00;0.62;0.00;0.00;0.62;2.90;2.60;;;31.80;32.30;;;;;;2264290;61;20441;-60
2023/08/15 05:32:04;0.00;0.00;0.62;0.00;0.00;0.62;3.67;2.83;;;31.80;32.30;;;;;;2263823;61;20915;-57
2023/08/15 05:34:49;0.00;0.00;0.62;0.00;0.00;0.62;3.10;2.80;;;31.80;32.40;;;;;;2264541;61;20427;-61
2023/08/15 05:37:33;0.00;0.00;0.62;0.00;0.00;0.62;3.57;3.00;;;31.80;32.40;;;;;;2264775;61;20391;-59
2023/08/15 05:40:18;0.00;0.00;0.62;0.00;0.00;0.62;3.60;3.30;;;31.80;32.40;;;;;;2263797;61;20841;-66
2023/08/15 05:43:04;0.00;0.00;0.62;0.00;0.00;0.62;2.80;2.60;;;31.80;32.40;;;;;;2264120;61;20352;-61
2023/08/15 05:45:49;0.00;0.00;0.62;0.00;0.00;0.62;3.27;2.90;;;31.80;32.40;;;;;;2264343;61;20371;-61
2023/08/15 05:48:37;0.00;0.00;0.62;0.00;0.00;0.62;3.33;3.03;;;31.80;32.40;;;;;;2264128;61;20376;-61
2023/08/15 05:51:21;0.00;0.00;0.62;0.00;0.00;0.62;3.57;2.83;;;31.80;32.40;;;;;;2264639;61;20423;-61
2023/08/15 05:54:06;0.00;0.00;0.62;0.00;0.00;0.62;3.60;3.07;;;31.80;32.40;;;;;;2264043;61;20371;-61
2023/08/15 05:56:51;0.00;0.00;0.62;0.00;0.00;0.62;4.00;2.50;;;31.80;32.40;;;;;;2264408;61;20494;-59
2023/08/15 05:59:35;0.00;0.00;0.62;0.00;0.00;0.62;3.10;2.80;;;31.80;32.40;;;;;;2264308;61;20779;-58
2023/08/15 06:02:20;0.00;0.00;0.62;0.00;0.00;0.62;2.80;2.57;;;31.80;32.40;;;;;;2264470;61;20410;-61
2023/08/15 06:05:07;0.00;0.00;0.62;0.00;0.00;0.62;4.10;3.23;;;31.80;32.40;;;;;;2264498;61;20456;-59
2023/08/15 06:07:52;0.00;0.00;0.62;0.00;0.00;0.62;3.87;2.87;;;31.80;33.10;;;;;;2264189;61;20372;-60
2023/08/15 06:10:37;0.00;0.00;0.62;0.00;0.00;0.62;2.90;2.70;;;31.80;32.40;;;;;;2263878;61;20392;-60
2023/08/15 06:13:22;0.00;0.00;0.62;0.00;0.00;0.62;3.27;2.97;;;31.80;32.40;;;;;;2264666;61;20454;-61
2023/08/15 06:16:06;0.00;0.00;0.62;0.00;0.00;0.62;2.77;2.57;;;31.80;32.40;;;;;;2264103;61;20427;-58
2023/08/15 06:18:51;0.00;0.00;0.62;0.00;0.00;0.62;3.80;3.17;;;31.80;32.40;;;;;;2264232;61;20364;-60
2023/08/15 06:21:37;0.00;0.00;0.62;0.00;0.00;0.62;2.90;2.60;;;31.80;32.40;;;;;;2264605;61;20418;-63
2023/08/15 06:24:21;0.00;0.00;0.62;0.00;0.00;0.62;2.87;2.67;;;31.80;32.40;;;;;;2264242;61;20767;-62
2023/08/15 06:27:06;0.00;0.00;0.62;0.00;0.00;0.62;3.00;2.40;;;31.80;32.40;;;;;;2264297;61;20359;-60
2023/08/15 06:29:51;0.00;0.00;0.62;0.00;0.00;0.62;3.57;2.77;;;31.80;32.40;;;;;;2263764;61;20420;-60
2023/08/15 06:32:36;0.00;0.00;0.62;0.00;0.00;0.62;3.37;2.90;;;31.80;32.40;;;;;;2264360;61;20649;-62
2023/08/15 06:35:27;0.00;0.00;0.62;0.00;0.00;0.62;3.47;2.73;;;31.80;32.40;;;;;;2264413;61;20387;-62
2023/08/15 06:38:13;0.00;0.00;0.62;0.00;0.00;0.62;3.17;2.80;;;31.80;32.40;;;;;;2263988;61;20396;-61
2023/08/15 06:40:58;0.00;0.00;0.62;0.00;0.00;0.62;3.50;3.20;;;31.80;33.10;;;;;;2264024;61;20441;-58
2023/08/15 06:43:44;0.00;0.00;0.62;0.00;0.00;0.62;3.23;2.93;;;31.80;32.50;;;;;;2264693;61;20818;-61
2023/08/15 06:46:28;0.00;0.00;0.62;0.00;0.00;0.62;3.10;2.80;;;31.80;32.50;;;;;;2263856;61;20396;-61
2023/08/15 06:49:14;0.00;0.00;0.62;0.00;0.00;0.62;3.27;2.83;;;31.80;32.50;;;;;;2263909;61;20406;-59
2023/08/15 06:51:58;0.00;0.00;0.62;0.00;0.00;0.62;3.63;2.83;;;31.80;32.50;;;;;;2264190;61;20379;-58
2023/08/15 06:54:45;0.00;0.00;0.62;0.00;0.00;0.62;4.67;2.80;;;31.80;32.50;;;;;;2264057;61;20438;-60
2023/08/15 06:57:31;0.00;0.00;0.62;0.00;0.00;0.62;2.67;2.43;;;31.80;32.50;;;;;;2264446;61;20425;-60
2023/08/15 07:00:17;0.00;0.00;0.62;0.00;0.00;0.62;3.50;2.73;;;31.80;32.50;;;;;;2263764;61;20426;-60
2023/08/15 07:03:02;0.00;0.00;0.62;0.00;0.00;0.62;3.50;3.17;;;31.80;32.50;;;;;;2264298;61;20764;-60
2023/08/15 07:05:47;0.00;0.00;0.62;0.00;0.00;0.62;2.70;2.50;;;31.80;32.50;;;;;;2264504;61;20412;-61
2023/08/15 07:08:32;0.00;0.00;0.62;0.00;0.00;0.62;3.30;2.43;;;31.80;32.50;;;;;;2263826;61;20822;-60
2023/08/15 07:11:18;0.00;0.00;0.62;0.00;0.00;0.62;3.47;2.90;;;31.70;32.40;;;;;;2264281;61;20388;-59
2023/08/15 07:14:03;0.00;0.00;0.62;0.00;0.00;0.62;2.90;2.20;;;31.80;32.50;;;;;;2264070;61;20403;-57
2023/08/15 07:16:49;0.00;0.00;0.62;0.00;0.00;0.62;3.37;2.83;;;31.70;32.40;;;;;;2264313;61;20726;-60
2023/08/15 07:19:34;0.00;0.00;0.62;0.00;0.00;0.62;3.10;2.80;;;31.70;32.40;;;;;;2263968;61;20434;-58
2023/08/15 07:22:19;0.00;0.00;0.62;0.00;0.00;0.62;3.40;3.10;;;31.70;32.40;;;;;;2263871;61;20368;-65
2023/08/15 07:25:05;0.00;0.00;0.62;0.00;0.00;0.62;4.77;2.97;;;31.80;32.50;;;;;;2264272;61;20953;-59
2023/08/15 07:27:51;0.00;0.00;0.62;0.00;0.00;0.62;3.47;3.07;;;31.70;32.40;;;;;;2264063;61;20688;-60
2023/08/15 07:30:36;0.00;0.00;0.62;0.00;0.00;0.62;3.33;2.53;;;31.70;32.50;;;;;;2263654;61;20426;-57
2023/08/15 07:33:22;0.00;0.00;0.62;0.00;0.00;0.62;2.70;2.20;;;31.70;32.50;;;;;;2264023;61;20775;-60
2023/08/15 07:36:07;0.00;0.00;0.62;0.00;0.00;0.62;4.10;2.70;;;31.70;32.50;;;;;;2264065;61;20383;-58
2023/08/15 07:38:52;0.00;0.00;0.62;0.00;0.00;0.62;3.20;2.73;;;31.70;32.50;;;;;;2263662;61;20368;-58
2023/08/15 07:41:36;0.00;0.00;0.62;0.00;0.00;0.62;2.70;2.50;;;31.70;32.50;;;;;;2264008;61;20859;-59
2023/08/15 07:44:23;0.00;0.00;0.62;0.00;0.00;0.62;3.27;2.70;;;31.70;32.50;;;;;;2264226;61;20360;-60
2023/08/15 07:47:08;0.00;0.00;0.62;0.00;0.00;0.62;3.73;2.40;;;31.70;32.60;;;;;;2264080;61;20395;-60
2023/08/15 07:50:13;0.00;0.00;0.62;0.00;0.00;0.62;3.67;3.10;;;31.70;32.50;;;;;;2263627;61;20384;-60
2023/08/15 07:52:58;0.00;0.00;0.62;0.00;0.00;0.62;2.90;2.70;;;31.70;32.50;;;;;;2263952;61;20363;-59
2023/08/15 07:55:43;0.00;0.00;0.62;0.00;0.00;0.62;4.13;3.07;;;31.70;32.60;;;;;;2264276;61;20403;-60
2023/08/15 07:58:28;0.00;0.00;0.62;0.00;0.00;0.62;3.10;2.77;;;31.70;32.60;;;;;;2263711;61;20464;-59
2023/08/15 08:01:14;0.00;0.00;0.62;0.00;0.00;0.62;3.10;2.80;;;31.80;32.70;;;;;;2264063;61;20379;-59
2023/08/15 08:04:00;0.00;0.00;0.62;0.00;0.00;0.62;2.60;2.40;;;31.70;32.60;;;;;;2264194;61;20403;-59
2023/08/15 08:06:45;0.00;0.00;0.62;0.00;0.00;0.62;2.80;2.60;;;31.80;32.70;;;;;;2263969;61;20392;-63
2023/08/15 08:09:30;0.00;0.00;0.62;0.00;0.00;0.62;3.63;2.67;;;31.70;32.60;;;;;;2263569;61;20387;-58
2023/08/15 08:12:14;0.00;0.00;0.62;0.00;0.00;0.62;2.83;2.63;;;31.80;32.70;;;;;;2264140;61;20421;-63
2023/08/15 08:15:00;0.00;0.00;0.62;0.00;0.00;0.62;3.37;2.63;;;31.80;32.70;;;;;;2263850;61;20476;-59
2023/08/15 08:17:46;0.00;0.00;0.62;0.00;0.00;0.62;2.70;2.50;;;31.80;32.80;;;;;;2264185;61;20384;-60
2023/08/15 08:20:31;0.00;0.00;0.62;0.00;0.00;0.62;3.07;2.77;;;31.80;32.80;;;;;;2263568;61;20946;-60
2023/08/15 08:23:16;0.00;0.00;0.62;0.00;0.00;0.62;2.97;2.67;;;31.80;32.80;;;;;;2263891;61;20396;-60
2023/08/15 08:26:01;0.00;0.00;0.62;0.00;0.00;0.62;3.13;2.83;;;31.80;32.80;;;;;;2264139;61;20364;-61
2023/08/15 08:28:46;0.00;0.00;0.62;0.00;0.00;0.62;3.13;2.30;;;31.80;32.90;;;;;;2263647;61;20395;-60
2023/08/15 08:31:31;0.00;0.00;0.62;0.00;0.00;0.62;4.00;2.53;;;31.70;32.80;;;;;;2263737;61;20352;-60
2023/08/15 08:34:16;0.00;0.00;0.62;0.00;0.00;0.62;3.00;2.70;;;31.70;33.50;;;;;;2264002;61;20768;-61
2023/08/15 08:37:02;0.00;0.00;0.62;0.00;0.00;0.62;2.60;2.40;;;31.70;32.80;;;;;;2263294;61;20372;-61
2023/08/15 08:39:46;0.00;0.00;0.62;0.00;0.00;0.62;3.70;2.10;;;31.80;32.90;;;;;;2263742;61;20427;-60
2023/08/15 08:42:32;0.00;0.00;0.62;0.00;0.00;0.62;2.60;2.40;;;31.80;32.90;;;;;;2264375;61;20363;-61
2023/08/15 08:45:22;0.00;0.00;0.62;0.00;0.00;0.62;3.43;2.10;;;31.70;32.90;;;;;;2263766;61;20509;-61
2023/08/15 08:48:09;0.00;0.00;0.62;0.00;0.00;0.62;2.47;2.27;;;31.80;33.00;;;;;;2264054;61;20885;-59
2023/08/15 08:50:57;0.00;0.00;0.62;0.00;0.00;0.62;2.60;2.30;;;31.80;33.00;;;;;;2292491;40;20943;-60
2023/08/15 08:53:42;0.00;0.00;0.62;0.00;0.00;0.62;2.23;2.03;;;31.80;33.00;;;;;;2263885;61;20421;-61
2023/08/15 08:56:29;0.00;0.00;0.62;0.00;0.00;0.62;2.37;2.17;;;31.80;33.00;;;;;;2263987;61;20795;-60
2023/08/15 08:59:17;0.00;0.00;0.62;0.00;0.00;0.62;2.40;1.87;;;31.80;33.00;;;;;;2263071;61;20364;-61
2023/08/15 09:02:02;0.00;0.00;0.62;0.00;0.00;0.62;2.20;2.00;;;31.80;33.10;;;;;;2264128;61;20359;-60
2023/08/15 09:04:48;0.00;0.00;0.62;0.00;0.00;0.62;3.10;2.23;;;31.80;33.10;;;;;;2264064;61;20392;-66
2023/08/15 09:07:35;0.00;0.00;0.62;0.00;0.00;0.62;2.70;2.17;;;31.80;33.10;;;;;;2263653;61;20824;-61
2023/08/15 09:10:21;0.00;0.00;0.62;0.00;0.00;0.62;2.07;1.87;;;31.80;33.10;;;;;;2263618;61;20943;-61
2023/08/15 09:13:06;0.00;0.00;0.62;0.00;0.00;0.62;2.10;1.77;;;31.80;33.10;;;;;;2263737;61;20407;-55
2023/08/15 09:15:55;0.00;0.00;0.62;0.00;0.00;0.62;3.03;2.17;;;31.80;33.20;;;;;;2263699;61;20387;-60
2023/08/15 09:18:40;0.00;0.00;0.62;0.00;0.00;0.62;2.60;2.10;;;31.80;33.20;;;;;;2263499;61;20459;-61
2023/08/15 09:21:27;0.00;0.00;0.62;0.00;0.00;0.62;2.80;1.93;;;31.80;33.20;;;;;;2263585;61;20367;-60
2023/08/15 09:24:13;0.00;0.00;0.62;0.00;0.00;0.62;2.60;2.10;;;31.80;33.30;;;;;;2264018;61;20452;-60
2023/08/15 09:27:05;0.00;0.00;0.62;0.00;0.00;0.62;2.20;1.90;;;31.80;33.30;;;;;;2263797;61;20896;-60
2023/08/15 09:29:49;0.00;0.00;0.62;0.00;0.00;0.62;2.23;2.00;;;31.80;33.30;;;;;;2259971;61;20954;-60
2023/08/15 09:32:34;0.00;0.00;0.62;0.00;0.00;0.62;3.03;2.13;;;31.80;33.30;;;;;;2260760;61;20364;-60
2023/08/15 09:35:19;0.00;0.00;0.62;0.00;0.00;0.62;1.90;1.70;;;31.80;33.40;;;;;;2263566;61;20392;-63
2023/08/15 09:38:06;0.00;0.00;0.62;0.00;0.00;0.62;2.50;1.90;;;31.80;33.40;;;;;;2263747;61;20368;-60
2023/08/15 09:40:53;0.00;0.00;0.62;0.00;0.00;0.62;2.30;1.90;;;31.90;33.50;;;;;;2263931;61;20425;-57
2023/08/15 09:43:49;0.00;0.00;0.62;0.00;0.00;0.62;2.00;1.60;;;31.80;33.40;;;;;;2263580;61;20368;-60
2023/08/15 09:46:35;0.00;0.00;0.62;0.00;0.00;0.62;2.37;2.17;;;31.90;33.60;;;;;;2263905;61;20645;-58
2023/08/15 09:49:20;0.00;0.00;0.62;0.00;0.00;0.62;2.00;1.60;;;31.90;33.50;;;;;;2262956;61;20437;-60
2023/08/15 09:52:06;0.00;0.00;0.62;0.00;0.00;0.62;2.87;1.80;;;31.90;33.60;;;;;;2263699;61;20865;-61
2023/08/15 09:54:51;0.00;0.00;0.62;0.00;0.00;0.62;1.90;1.70;;;31.90;33.60;;;;;;2264005;61;20426;-61
2023/08/15 09:57:37;0.00;0.00;0.62;0.00;0.00;0.62;1.70;1.50;;;31.90;33.60;;;;;;2264233;61;20382;-61
2023/08/15 10:00:22;0.00;0.00;0.62;0.00;0.00;0.62;2.33;1.87;;;31.90;33.60;;;;;;2264085;61;20399;-60
2023/08/15 10:03:16;0.00;0.00;0.62;0.00;0.00;0.62;2.17;1.80;;;31.90;33.60;;;;;;2264560;61;20943;-57
2023/08/15 10:06:03;0.00;0.00;0.62;0.00;0.00;0.62;1.80;1.60;;;31.90;33.60;;;;;;2264317;61;20352;-57
2023/08/15 10:08:49;0.00;0.00;0.62;0.00;0.00;0.62;2.07;1.63;;;31.90;33.60;;;;;;2264149;61;20386;-59
2023/08/15 10:11:38;0.00;0.00;0.62;0.00;0.00;0.62;2.30;1.83;;;31.90;33.60;;;;;;2264269;61;20376;-61
2023/08/15 10:14:25;0.00;0.00;0.62;0.00;0.00;0.62;1.80;1.40;;;31.90;33.70;;;;;;2264347;61;20516;-62
2023/08/15 10:17:10;0.00;0.00;0.62;0.00;0.00;0.62;2.10;1.90;;;31.90;33.70;;;;;;2264593;61;20856;-61
2023/08/15 10:20:02;0.00;0.00;0.62;0.00;0.00;0.62;2.50;1.90;;;31.90;33.70;;;;;;2263695;61;20962;-61
2023/08/15 10:22:51;0.00;0.00;0.62;0.00;0.00;0.62;2.40;1.60;;;31.90;33.70;;;;;;2264490;61;20368;-61
2023/08/15 10:25:38;0.00;0.00;0.62;0.00;0.00;0.62;2.10;1.77;;;32.00;33.80;;;;;;2264502;61;20391;-61
2023/08/15 10:28:26;0.00;0.00;0.62;0.00;0.00;0.62;2.30;2.00;;;32.00;33.80;;;;;;2263771;61;20364;-61
2023/08/15 10:31:13;0.00;0.00;0.62;0.00;0.00;0.62;1.80;1.20;;;32.00;33.80;;;;;;2264402;61;20379;-60
2023/08/15 10:33:58;0.00;0.00;0.62;0.00;0.00;0.62;2.43;1.97;;;32.00;33.80;;;;;;2264389;61;20364;-60
2023/08/15 10:36:45;0.00;0.00;0.62;0.00;0.00;0.62;2.10;1.40;;;32.00;33.80;;;;;;2264230;61;21066;-63
2023/08/15 10:39:36;0.00;0.00;0.62;0.00;0.00;0.62;1.90;1.50;;;32.00;34.40;;;;;;2264059;61;20384;-61
2023/08/15 10:42:21;0.00;0.00;0.62;0.00;0.00;0.62;2.07;1.60;;;32.00;33.80;;;;;;2264365;61;20375;-59
2023/08/15 10:45:13;0.00;0.00;0.62;0.00;0.00;0.62;2.10;1.80;;;32.00;33.80;;;;;;2264062;61;20880;-60
2023/08/15 10:47:59;0.00;0.00;0.62;0.00;0.00;0.62;2.80;1.87;;;32.00;33.80;;;;;;2264177;61;20364;-59
2023/08/15 10:50:47;0.00;0.00;0.62;0.00;0.00;0.62;1.80;1.57;;;32.00;33.80;;;;;;2263623;61;20812;-58
2023/08/15 10:53:32;0.00;0.00;0.62;0.00;0.00;0.62;2.00;1.60;;;32.00;33.80;;;;;;2261061;61;20344;-59